Time;durP1;ratioP1;P1;durP2;ratioP2;P2;SDS_P1;SDS_P2;PMS_P1;PMS_P2;Temp;Humidity;BMP_temperature;BMP_pressure;BME280_temperature;BME280_humidity;BME280_pressure;Samples;Min_cycle;Max_cycle;Signal;HPM_P1;HPM_P2
2021/04/28 00:00:29;;;;;;;24.98;14.10;;;6.60;99.90;;;;;;4905423;29;20044;-95
2021/04/28 00:02:58;;;;;;;23.60;13.27;;;6.50;99.90;;;;;;4904822;29;20036;-93
2021/04/28 00:05:24;;;;;;;22.30;12.25;;;6.50;99.90;;;;;;4902454;29;20039;-93
2021/04/28 00:07:52;;;;;;;23.10;13.27;;;6.50;99.90;;;;;;4901000;29;20033;-94
2021/04/28 00:10:20;;;;;;;26.70;12.50;;;6.50;99.90;;;;;;4900615;29;20024;-94
2021/04/28 00:12:49;;;;;;;22.42;12.57;;;6.50;99.90;;;;;;4900204;29;20036;-94
2021/04/28 00:15:20;;;;;;;21.10;11.18;;;6.40;99.90;;;;;;4899962;29;20035;-93
2021/04/28 00:17:46;;;;;;;19.70;10.32;;;6.40;99.90;;;;;;4899986;29;20047;-93
2021/04/28 00:23:33;;;;;;;22.67;10.85;;;6.40;99.90;;;;;;4949123;23;20187;-93
2021/04/28 00:25:59;;;;;;;15.77;9.68;;;6.30;99.90;;;;;;4958142;28;20474;-94
2021/04/28 00:28:25;;;;;;;19.63;11.13;;;6.30;99.90;;;;;;4961695;28;20034;-94
2021/04/28 00:30:50;;;;;;;17.30;9.75;;;6.30;99.90;;;;;;4959826;28;20113;-95
2021/04/28 00:33:16;;;;;;;18.25;10.13;;;6.20;99.90;;;;;;4959007;28;20664;-94
2021/04/28 00:35:42;;;;;;;16.60;10.30;;;6.20;99.90;;;;;;4959280;28;20026;-94
2021/04/28 00:38:08;;;;;;;18.58;9.82;;;6.10;99.90;;;;;;4957511;28;20034;-95
2021/04/28 00:40:39;;;;;;;20.30;10.30;;;6.10;99.90;;;;;;4957754;28;20068;-95
2021/04/28 00:43:05;;;;;;;18.00;10.25;;;6.10;99.90;;;;;;4958245;28;20029;-94
2021/04/28 00:45:33;;;;;;;14.80;9.82;;;6.20;99.90;;;;;;4957493;28;20034;-95
2021/04/28 00:48:00;;;;;;;17.02;9.45;;;6.20;99.90;;;;;;4954991;28;20031;-94
2021/04/28 01:04:33;;;;;;;18.40;10.60;;;6.00;99.90;;;;;;6075140;23;20066;31
2021/04/28 01:07:05;;;;;;;21.35;10.02;;;6.00;99.90;;;;;;4900082;29;20048;-95
2021/04/28 01:09:30;;;;;;;26.27;11.52;;;6.00;99.90;;;;;;4901639;29;20052;-96
2021/04/28 01:11:56;;;;;;;21.38;12.43;;;5.90;99.90;;;;;;4906521;29;20040;-95
2021/04/28 01:14:22;;;;;;;25.48;13.02;;;5.90;99.90;;;;;;4907515;29;20028;-95
2021/04/28 01:16:48;;;;;;;23.40;13.25;;;5.90;99.90;;;;;;4913220;29;20056;-93
2021/04/28 01:19:16;;;;;;;24.70;13.35;;;5.90;99.90;;;;;;4913863;29;20040;-95
2021/04/28 01:21:42;;;;;;;27.15;14.63;;;5.80;99.90;;;;;;4906896;29;20050;-95
2021/04/28 01:24:17;;;;;;;25.70;12.88;;;5.80;99.90;;;;;;4911175;29;20040;-96
2021/04/28 01:26:48;;;;;;;22.45;13.85;;;5.80;99.90;;;;;;4907841;29;20099;-95
2021/04/28 01:29:16;;;;;;;24.17;13.88;;;5.80;99.90;;;;;;4910540;29;20020;-96
2021/04/28 01:31:43;;;;;;;26.15;13.52;;;5.80;99.90;;;;;;4908683;29;20448;-96
2021/04/28 01:34:11;;;;;;;30.23;13.15;;;5.80;99.90;;;;;;4911155;29;20032;-96
2021/04/28 01:39:19;;;;;;;21.02;11.38;;;5.80;99.90;;;;;;5317864;23;20043;-96
2021/04/28 01:41:48;;;;;;;28.92;12.10;;;5.80;99.90;;;;;;4965605;29;20031;-96
2021/04/28 01:44:23;;;;;;;20.67;11.25;;;5.80;99.90;;;;;;4929713;29;20042;-95
2021/04/28 01:46:53;;;;;;;22.65;11.10;;;5.80;99.90;;;;;;4928762;29;20051;-95
2021/04/28 02:14:25;;;;;;;17.35;9.20;;;5.80;99.90;;;;;;5211515;23;20061;-95
2021/04/28 02:16:51;;;;;;;18.98;9.70;;;5.80;99.90;;;;;;4974974;28;20037;-96
2021/04/28 02:19:18;;;;;;;19.02;10.40;;;5.80;99.90;;;;;;4967748;28;20042;-95
2021/04/28 02:21:49;;;;;;;18.02;10.15;;;5.90;99.90;;;;;;4952577;29;20114;-96
2021/04/28 02:24:18;;;;;;;15.38;9.98;;;5.90;99.90;;;;;;4955014;28;20039;-96
2021/04/28 02:26:48;;;;;;;20.35;11.48;;;5.80;99.90;;;;;;4969964;28;20031;-95
2021/04/28 02:29:17;;;;;;;20.02;10.77;;;5.90;99.90;;;;;;4955934;29;20023;-95
2021/04/28 02:31:43;;;;;;;23.60;11.10;;;5.90;99.90;;;;;;4953171;29;20028;-94
2021/04/28 02:34:09;;;;;;;17.40;8.55;;;5.80;99.90;;;;;;4955882;29;20043;-96
2021/04/28 02:36:41;;;;;;;14.73;8.02;;;5.90;99.90;;;;;;4952278;29;20031;-96
2021/04/28 02:39:19;;;;;;;12.10;7.78;;;5.80;99.90;;;;;;4967531;29;20107;-96
2021/04/28 02:41:49;;;;;;;13.85;8.77;;;5.80;99.90;;;;;;4963094;29;20023;-96
2021/04/28 02:44:16;;;;;;;;;;;5.80;99.90;;;;;;4959745;29;20038;-96
2021/04/28 02:46:44;;;;;;;19.63;8.02;;;5.80;99.90;;;;;;4958108;29;19978;-96
2021/04/28 02:49:13;;;;;;;20.70;8.77;;;5.70;99.90;;;;;;4934717;29;20061;-96
2021/04/28 02:51:40;;;;;;;18.30;8.18;;;5.70;99.90;;;;;;4929485;29;20028;-96
2021/04/28 02:54:07;;;;;;;13.38;7.57;;;5.60;99.90;;;;;;4931373;29;20099;-96
2021/04/28 02:56:38;;;;;;;17.15;8.68;;;5.60;99.90;;;;;;4918134;29;20035;-96
2021/04/28 02:59:05;;;;;;;16.90;8.80;;;5.60;99.90;;;;;;4935892;29;20064;-95
2021/04/28 03:01:31;;;;;;;13.32;8.20;;;5.60;99.90;;;;;;4935224;29;20095;-95
2021/04/28 03:03:59;;;;;;;14.23;8.45;;;5.70;99.90;;;;;;4935138;29;20032;-95
2021/04/28 03:06:25;;;;;;;20.30;8.32;;;5.60;99.90;;;;;;4927801;29;20122;-95
2021/04/28 03:08:51;;;;;;;19.85;7.80;;;5.60;99.90;;;;;;4927260;29;20119;-96
2021/04/28 03:11:20;;;;;;;11.45;7.30;;;5.60;99.90;;;;;;4930020;29;20114;-95
2021/04/28 03:13:46;;;;;;;16.35;7.15;;;5.60;99.90;;;;;;4925062;29;20055;-96
2021/04/28 03:16:20;;;;;;;15.90;8.23;;;5.50;99.90;;;;;;4918501;29;20076;-96
2021/04/28 03:19:15;;;;;;;12.73;7.78;;;5.50;99.90;;;;;;4933030;29;20070;-95
2021/04/28 03:21:45;;;;;;;19.98;8.40;;;5.50;99.90;;;;;;4908501;29;20040;-96
2021/04/28 03:24:19;;;;;;;19.48;9.60;;;5.50;99.90;;;;;;4911921;29;20118;-96
2021/04/28 03:26:55;;;;;;;18.20;11.40;;;5.50;99.90;;;;;;4917624;29;20100;-95
2021/04/28 03:30:04;;;;;;;22.50;11.73;;;5.50;99.90;;;;;;4907283;29;20024;-96
2021/04/28 03:32:33;;;;;;;20.70;12.30;;;5.50;99.90;;;;;;4924561;29;20068;-95
2021/04/28 03:35:04;;;;;;;23.33;11.55;;;5.40;99.90;;;;;;4919177;29;20073;-96
2021/04/28 03:37:33;;;;;;;17.73;11.38;;;5.40;99.90;;;;;;4931898;29;20052;-96
2021/04/28 03:40:12;;;;;;;22.08;12.95;;;5.40;99.90;;;;;;4918589;29;20036;-96
2021/04/28 03:42:39;;;;;;;18.20;10.63;;;5.40;99.90;;;;;;4919530;29;20040;-96
2021/04/28 03:45:06;;;;;;;26.75;12.98;;;5.40;99.90;;;;;;4885101;29;20088;-95
2021/04/28 03:47:35;;;;;;;18.48;10.73;;;5.40;99.90;;;;;;4912662;29;20043;-96
2021/04/28 03:50:01;;;;;;;23.30;11.35;;;5.40;99.90;;;;;;4915095;29;20028;-96
2021/04/28 03:52:29;;;;;;;19.42;12.70;;;5.40;99.90;;;;;;4916035;29;20051;-95
2021/04/28 03:54:58;;;;;;;19.92;12.70;;;5.40;99.90;;;;;;4931493;29;20097;-96
2021/04/28 03:57:24;;;;;;;22.48;11.85;;;5.40;99.90;;;;;;4912666;29;20134;-95
2021/04/28 03:59:53;;;;;;;27.23;12.63;;;5.50;99.90;;;;;;4931652;29;20032;-96
2021/04/28 04:02:18;;;;;;;21.10;12.35;;;5.40;99.90;;;;;;4908874;29;20028;-96
2021/04/28 04:04:47;;;;;;;23.67;12.25;;;5.50;99.90;;;;;;4906256;29;20038;-96
2021/04/28 04:07:15;;;;;;;21.98;12.13;;;5.40;99.90;;;;;;4910559;29;20059;-96
2021/04/28 04:09:43;;;;;;;21.13;12.38;;;5.40;99.90;;;;;;4909859;29;20032;-96
2021/04/28 04:12:09;;;;;;;18.05;10.25;;;5.40;99.90;;;;;;4913372;29;20025;-95
2021/04/28 04:14:35;;;;;;;16.95;10.27;;;5.40;99.90;;;;;;4922803;29;20070;-96
2021/04/28 04:17:01;;;;;;;19.52;11.40;;;5.50;99.90;;;;;;4913651;29;20036;-96
2021/04/28 04:19:31;;;;;;;21.83;11.02;;;5.40;99.90;;;;;;4931288;29;20067;-94
2021/04/28 04:22:00;;;;;;;16.30;10.70;;;5.40;99.90;;;;;;4930026;29;20039;-96
2021/04/28 04:24:26;;;;;;;20.85;11.52;;;5.40;99.90;;;;;;4930339;29;20036;-96
2021/04/28 04:26:54;;;;;;;18.15;10.30;;;5.40;99.90;;;;;;4925358;29;20044;-96
2021/04/28 04:29:21;;;;;;;21.92;10.15;;;5.40;99.90;;;;;;4932554;29;20044;-96
2021/04/28 04:31:49;;;;;;;19.33;10.50;;;5.40;99.90;;;;;;4929817;29;20074;-96
2021/04/28 04:34:16;;;;;;;18.63;10.95;;;5.40;99.90;;;;;;4928605;29;20032;-96
2021/04/28 04:36:47;;;;;;;16.75;9.93;;;5.40;99.90;;;;;;4927596;29;20031;-96
2021/04/28 04:39:18;;;;;;;14.82;9.45;;;5.40;99.90;;;;;;4932617;29;20036;-96
2021/04/28 04:41:44;;;;;;;24.27;10.88;;;5.40;99.90;;;;;;4935257;29;20024;-96
2021/04/28 04:44:17;;;;;;;22.67;12.70;;;5.40;99.90;;;;;;4932573;29;20047;-95
2021/04/28 04:49:21;;;;;;;23.30;10.82;;;5.40;99.90;;;;;;5338752;23;20207;-94
2021/04/28 06:31:15;;;;;;;28.90;14.48;;;6.20;99.90;;;;;;3807742;23;20507;-92
2021/04/28 06:33:43;;;;;;;26.48;13.65;;;6.30;99.90;;;;;;4921606;29;20071;-94
2021/04/28 06:44:14;;;;;;;26.73;12.85;;;6.40;99.90;;;;;;5144082;23;20064;-96
2021/04/28 06:46:40;;;;;;;27.38;11.23;;;6.40;99.90;;;;;;4939779;29;20028;-94
2021/04/28 06:49:06;;;;;;;24.10;10.88;;;6.50;99.90;;;;;;4918942;29;20032;-93
2021/04/28 06:51:34;;;;;;;27.27;12.43;;;6.50;99.90;;;;;;4915005;29;20031;-95
2021/04/28 06:55:01;;;;;;;21.23;10.75;;;6.50;99.90;;;;;;4927393;29;20020;-96
2021/04/28 06:58:15;;;;;;;26.90;10.43;;;6.60;99.90;;;;;;4877700;29;20029;-96
2021/04/28 07:03:33;;;;;;;19.08;10.27;;;6.70;99.90;;;;;;4883047;29;20066;-96
2021/04/28 07:05:59;;;;;;;19.40;9.23;;;6.80;99.90;;;;;;4856604;29;20057;-94
2021/04/28 07:08:30;;;;;;;26.83;10.25;;;6.80;99.90;;;;;;4872921;29;20036;-95
2021/04/28 07:11:05;;;;;;;;;;;6.90;99.90;;;;;;4864353;29;20097;-94
2021/04/28 07:13:40;;;;;;;20.08;9.65;;;6.90;99.90;;;;;;4861927;29;20064;-96
2021/04/28 07:16:06;;;;;;;20.75;9.07;;;6.90;99.90;;;;;;4852234;29;20034;-96
2021/04/28 07:18:31;;;;;;;25.38;9.35;;;7.10;99.90;;;;;;4847373;29;20184;-95
2021/04/28 07:20:57;;;;;;;27.63;11.20;;;7.20;99.90;;;;;;4846175;29;20167;-94
2021/04/28 07:23:23;;;;;;;17.40;9.00;;;7.30;99.90;;;;;;4847837;29;20029;-92
2021/04/28 07:25:51;;;;;;;21.98;10.07;;;7.50;99.90;;;;;;4852991;29;20040;-95
2021/04/28 07:28:27;;;;;;;18.90;9.43;;;7.60;99.90;;;;;;4875726;29;20037;-95
2021/04/28 07:30:52;;;;;;;21.13;10.18;;;7.70;99.90;;;;;;4864211;29;20025;-96
2021/04/28 07:33:18;;;;;;;21.48;11.30;;;7.90;99.90;;;;;;4879449;29;20063;-94
2021/04/28 07:35:44;;;;;;;24.60;10.15;;;7.90;99.90;;;;;;4901888;29;20032;-94
2021/04/28 07:38:10;;;;;;;24.20;11.55;;;8.00;99.90;;;;;;4902509;29;20044;-94
2021/04/28 07:44:14;;;;;;;16.77;9.82;;;8.10;99.90;;;;;;4949680;23;20058;-94
2021/04/28 07:46:45;;;;;;;23.80;9.00;;;8.10;99.90;;;;;;4929992;29;20487;-95
2021/04/28 07:49:32;;;;;;;;;;;8.30;99.90;;;;;;4923040;29;20034;-94
2021/04/28 07:52:04;;;;;;;18.60;9.02;;;8.30;99.90;;;;;;4943231;29;19911;-94
2021/04/28 07:55:26;;;;;;;;;;;;;;;;;;;;;
2021/04/28 07:57:43;;;;;;;;;;;8.30;99.90;;;;;;4938701;29;20054;-96
2021/04/28 08:00:21;;;;;;;18.30;8.07;;;8.40;99.90;;;;;;4929282;29;20393;-94
2021/04/28 08:02:47;;;;;;;17.80;7.30;;;8.40;99.90;;;;;;4928660;29;20032;-95
2021/04/28 08:05:23;;;;;;;14.25;6.93;;;8.50;99.90;;;;;;4931128;29;20023;-95
2021/04/28 08:07:55;;;;;;;15.43;6.85;;;8.50;99.90;;;;;;4929132;29;20031;-93
2021/04/28 08:10:27;;;;;;;22.83;7.03;;;8.60;99.90;;;;;;4915617;29;20039;-95
2021/04/28 08:12:53;;;;;;;15.93;6.88;;;8.60;99.90;;;;;;4928477;29;20038;-94
2021/04/28 08:15:37;;;;;;;14.93;7.63;;;8.60;99.90;;;;;;4937031;29;20028;-95
2021/04/28 08:21:27;;;;;;;13.55;6.63;;;8.80;99.90;;;;;;4912176;29;20051;-95
2021/04/28 08:24:45;;;;;;;15.00;6.50;;;8.90;99.90;;;;;;4935299;29;20059;-93
2021/04/28 08:30:20;;;;;;;12.75;6.30;;;9.10;99.90;;;;;;4893612;29;20048;-95
2021/04/28 08:32:56;;;;;;;14.88;5.95;;;9.20;99.90;;;;;;4889186;29;20037;-94
2021/04/28 08:35:31;;;;;;;16.85;5.80;;;9.30;99.90;;;;;;4873616;29;20041;-95
2021/04/28 08:38:11;;;;;;;16.35;5.15;;;9.40;99.90;;;;;;4892171;29;20068;-94
2021/04/28 08:40:37;;;;;;;17.63;5.95;;;9.50;99.90;;;;;;4895230;29;20041;-94
2021/04/28 08:43:06;;;;;;;20.15;4.75;;;9.60;99.90;;;;;;4885438;29;20041;-94
2021/04/28 08:45:40;;;;;;;16.38;4.40;;;9.60;99.90;;;;;;4884673;29;20099;-94
2021/04/28 08:48:14;;;;;;;12.80;4.47;;;9.70;99.90;;;;;;4898629;29;20041;-94
2021/04/28 08:51:15;;;;;;;13.07;5.35;;;9.80;99.90;;;;;;4902477;29;20040;-94
2021/04/28 08:53:59;;;;;;;16.05;4.50;;;10.00;99.90;;;;;;4891906;29;20061;-94
2021/04/28 08:56:25;;;;;;;11.60;5.30;;;10.20;99.90;;;;;;4915220;29;20048;-94
2021/04/28 08:59:07;;;;;;;14.25;4.85;;;10.40;99.90;;;;;;4933669;29;20123;-93
2021/04/28 09:01:34;;;;;;;10.90;4.88;;;10.50;99.90;;;;;;4933133;29;20044;-94
2021/04/28 09:04:18;;;;;;;15.52;4.30;;;10.70;99.90;;;;;;4942721;29;20023;-94
2021/04/28 09:06:45;;;;;;;14.63;4.07;;;10.70;99.50;;;;;;4951521;29;20062;-93
2021/04/28 09:09:20;;;;;;;16.15;5.28;;;10.70;98.70;;;;;;4954021;29;20031;-94
2021/04/28 09:11:51;;;;;;;13.38;4.40;;;10.70;98.40;;;;;;4970090;29;20091;-96
2021/04/28 09:14:21;;;;;;;12.82;5.32;;;10.70;98.30;;;;;;4951002;29;20031;-96
2021/04/28 09:17:07;;;;;;;11.02;4.18;;;10.70;98.30;;;;;;4948240;29;20027;-96
2021/04/28 09:19:42;;;;;;;14.65;4.78;;;10.80;98.00;;;;;;4953446;29;20043;-95
2021/04/28 09:22:41;;;;;;;14.32;4.50;;;10.80;97.50;;;;;;4956610;29;20035;-95
2021/04/28 09:25:10;;;;;;;10.38;5.20;;;10.70;96.30;;;;;;4954050;29;20051;-95
2021/04/28 09:34:21;;;;;;;13.82;4.68;;;10.50;94.90;;;;;;4961521;28;20020;-94
2021/04/28 09:40:59;;;;;;;;;;;;;;;;;;;;;
2021/04/28 09:44:07;;;;;;;15.70;4.45;;;10.60;94.00;;;;;;4967101;29;20063;-95
2021/04/28 09:46:39;;;;;;;10.55;3.67;;;10.70;93.20;;;;;;4950236;29;20137;-95
2021/04/28 09:53:20;;;;;;;12.93;3.90;;;10.90;92.20;;;;;;4930569;29;20043;-95
2021/04/28 10:02:01;;;;;;;10.93;4.50;;;11.70;90.40;;;;;;4893623;29;20076;-94
2021/04/28 10:04:27;;;;;;;8.10;3.88;;;12.00;89.50;;;;;;4869766;29;20070;-95
2021/04/28 10:06:53;;;;;;;10.95;4.50;;;12.20;88.40;;;;;;4866770;29;20120;-94
2021/04/28 10:09:38;;;;;;;10.70;4.38;;;12.30;86.10;;;;;;4875599;29;20029;-95
2021/04/28 10:12:09;;;;;;;12.18;4.70;;;12.40;85.20;;;;;;4893859;29;20563;-95
2021/04/28 10:14:38;;;;;;;8.05;3.90;;;12.40;84.20;;;;;;4879150;29;20034;-94
2021/04/28 10:17:08;;;;;;;12.85;4.53;;;12.30;82.70;;;;;;4876086;29;20055;-95
2021/04/28 10:19:38;;;;;;;9.48;5.13;;;12.20;82.00;;;;;;4906978;29;20373;-94
2021/04/28 10:22:15;;;;;;;11.18;4.30;;;12.10;81.80;;;;;;4908953;29;20028;-93
2021/04/28 10:24:42;;;;;;;10.57;4.38;;;12.10;81.90;;;;;;4903336;29;20040;-94
2021/04/28 10:27:10;;;;;;;9.27;4.70;;;12.20;81.40;;;;;;4917265;29;20036;-95
2021/04/28 10:29:38;;;;;;;9.48;4.40;;;12.40;80.90;;;;;;4931184;29;20055;-94
2021/04/28 10:32:08;;;;;;;11.65;4.30;;;12.60;79.80;;;;;;4934433;29;20032;-94
2021/04/28 10:34:52;;;;;;;10.70;4.80;;;12.70;79.10;;;;;;4932573;29;20023;-94
2021/04/28 10:37:30;;;;;;;9.80;5.13;;;12.70;77.40;;;;;;4932790;29;20039;-93
2021/04/28 10:39:57;;;;;;;13.75;5.75;;;12.70;76.50;;;;;;4939265;29;20082;-95
2021/04/28 10:42:49;;;;;;;10.73;5.45;;;12.70;75.90;;;;;;4951835;28;20028;-95
2021/04/28 10:45:24;;;;;;;10.77;4.25;;;12.80;75.50;;;;;;4932209;29;20099;-96
2021/04/28 10:48:10;;;;;;;8.20;5.20;;;12.80;73.90;;;;;;4946039;29;20031;-95
2021/04/28 10:53:29;;;;;;;11.23;4.20;;;12.70;74.30;;;;;;4946324;29;20539;-94
2021/04/28 10:56:13;;;;;;;10.30;4.57;;;12.90;74.30;;;;;;4936216;29;20024;-95
2021/04/28 10:58:40;;;;;;;7.65;4.70;;;13.10;74.10;;;;;;4921564;29;20050;-94
2021/04/28 11:01:09;;;;;;;7.60;4.50;;;13.10;73.60;;;;;;4936767;29;20023;-94
2021/04/28 11:03:41;;;;;;;11.30;4.40;;;13.00;73.60;;;;;;4932054;29;20447;-94
2021/04/28 11:06:23;;;;;;;15.60;4.65;;;13.20;73.50;;;;;;4934442;29;20082;-95
2021/04/28 11:09:02;;;;;;;13.73;4.88;;;13.30;72.80;;;;;;4939983;29;20034;-95
2021/04/28 11:11:44;;;;;;;14.18;5.53;;;13.20;72.50;;;;;;4938388;29;20027;-95
2021/04/28 11:17:07;;;;;;;9.43;4.10;;;12.90;71.80;;;;;;4959782;29;20024;-96
2021/04/28 11:19:38;;;;;;;11.45;4.63;;;12.70;72.10;;;;;;4938473;29;20039;-95
2021/04/28 11:22:22;;;;;;;9.05;4.50;;;12.70;72.90;;;;;;4936000;29;20030;-95
2021/04/28 11:25:24;;;;;;;10.15;4.70;;;12.50;72.90;;;;;;4932230;29;20131;-95
2021/04/28 11:28:13;;;;;;;11.00;4.80;;;12.40;72.90;;;;;;4932928;29;20027;-95
2021/04/28 11:30:56;;;;;;;10.90;4.70;;;12.20;73.00;;;;;;4933369;29;20063;-94
2021/04/28 11:33:33;;;;;;;8.75;5.07;;;12.00;73.30;;;;;;4933681;29;20034;-95
2021/04/28 11:36:23;;;;;;;14.43;5.05;;;11.90;73.60;;;;;;4936456;29;20031;-94
2021/04/28 11:39:11;;;;;;;10.77;4.55;;;11.80;73.50;;;;;;4935035;29;20110;-96
2021/04/28 11:41:53;;;;;;;7.72;3.90;;;11.80;73.50;;;;;;4927104;29;20472;-95
2021/04/28 11:44:24;;;;;;;5.78;3.60;;;11.80;73.40;;;;;;4910274;29;20075;-94
2021/04/28 11:47:05;;;;;;;7.45;4.25;;;11.80;73.50;;;;;;4910146;29;20127;-96
2021/04/28 11:49:31;;;;;;;8.52;3.78;;;11.90;73.50;;;;;;4910345;29;20025;-95
2021/04/28 11:51:58;;;;;;;10.10;4.65;;;11.80;73.40;;;;;;4908329;29;20400;-95
2021/04/28 11:54:27;;;;;;;8.93;4.15;;;11.90;73.30;;;;;;4903671;29;20499;-96
2021/04/28 11:56:52;;;;;;;11.32;4.78;;;11.90;72.80;;;;;;4904432;29;20072;-96
2021/04/28 11:59:26;;;;;;;7.80;4.38;;;11.90;72.90;;;;;;4906668;29;20096;-95
2021/04/28 12:02:04;;;;;;;8.77;4.80;;;11.90;72.10;;;;;;4905887;29;20032;-95
2021/04/28 12:04:31;;;;;;;6.53;4.70;;;11.90;71.30;;;;;;4903940;29;20063;-91
2021/04/28 12:06:57;;;;;;;9.65;4.50;;;11.90;71.30;;;;;;4903446;29;20020;-94
2021/04/28 12:09:48;;;;;;;8.98;4.82;;;12.00;71.20;;;;;;4905216;29;20062;-94
2021/04/28 12:12:23;;;;;;;8.00;4.32;;;12.00;71.10;;;;;;4906236;29;20036;-95
2021/04/28 12:15:04;;;;;;;8.10;4.03;;;12.00;70.80;;;;;;4921934;29;20060;-94
2021/04/28 12:17:40;;;;;;;9.90;4.30;;;12.10;70.80;;;;;;4906693;29;20036;-96
2021/04/28 12:20:17;;;;;;;6.13;3.95;;;12.30;70.80;;;;;;4902654;29;20401;-96
2021/04/28 12:22:43;;;;;;;9.18;4.68;;;12.40;70.70;;;;;;4901489;29;20555;-95
2021/04/28 12:25:13;;;;;;;6.80;4.35;;;12.50;70.20;;;;;;4900359;29;20024;-95
2021/04/28 12:27:44;;;;;;;10.38;4.65;;;12.50;70.00;;;;;;4898477;29;20021;-95
2021/04/28 12:30:11;;;;;;;6.80;3.97;;;12.60;70.10;;;;;;4901597;29;20444;-95
2021/04/28 12:32:44;;;;;;;8.27;4.03;;;12.70;69.90;;;;;;4900919;29;20483;-95
2021/04/28 12:35:20;;;;;;;9.50;5.03;;;12.70;69.90;;;;;;4899529;29;20028;-94
2021/04/28 12:38:08;;;;;;;11.25;4.45;;;12.70;69.90;;;;;;4903210;29;20048;-95
2021/04/28 12:40:47;;;;;;;10.82;4.13;;;12.70;69.80;;;;;;4900845;29;20021;-94
2021/04/28 12:43:25;;;;;;;8.75;4.00;;;12.70;69.50;;;;;;4900768;29;20036;-95
2021/04/28 12:45:51;;;;;;;8.63;4.20;;;12.60;69.60;;;;;;4898723;29;20040;-95
2021/04/28 12:48:19;;;;;;;8.52;4.43;;;12.60;69.80;;;;;;4902425;29;20095;-95
2021/04/28 12:50:47;;;;;;;6.95;4.10;;;12.60;69.80;;;;;;4902415;29;20032;-94
2021/04/28 12:53:44;;;;;;;6.25;4.13;;;12.70;70.00;;;;;;4901885;29;20024;-94
2021/04/28 12:56:10;;;;;;;8.80;4.05;;;12.80;69.50;;;;;;4902238;29;20268;-94
2021/04/28 12:58:50;;;;;;;7.95;3.60;;;12.90;69.20;;;;;;4902653;29;20083;-94
2021/04/28 13:01:22;;;;;;;7.38;4.00;;;12.90;68.70;;;;;;4903238;29;20051;-94
2021/04/28 13:03:48;;;;;;;8.18;3.60;;;12.90;68.60;;;;;;4903471;29;20036;-94
2021/04/28 13:06:22;;;;;;;11.00;4.10;;;13.00;68.60;;;;;;4907283;29;20106;-95
2021/04/28 13:08:49;;;;;;;6.85;3.88;;;13.00;68.10;;;;;;4910577;29;20035;-93
2021/04/28 13:11:25;;;;;;;7.32;3.70;;;13.00;68.00;;;;;;4913164;29;20036;-94
2021/04/28 13:13:54;;;;;;;6.55;4.20;;;12.90;67.90;;;;;;4913431;29;20048;-94
2021/04/28 13:16:34;;;;;;;5.57;3.90;;;12.80;68.00;;;;;;4913749;29;20032;-94
2021/04/28 13:19:05;;;;;;;8.57;4.45;;;12.70;68.10;;;;;;4909181;29;20039;-94
2021/04/28 13:21:37;;;;;;;8.90;4.50;;;12.60;67.90;;;;;;4908095;29;20119;-94
2021/04/28 13:24:12;;;;;;;7.30;3.88;;;12.40;67.80;;;;;;4908070;29;20099;-94
2021/04/28 13:26:42;;;;;;;12.63;4.30;;;12.30;68.10;;;;;;4907677;29;20031;-93
2021/04/28 13:29:08;;;;;;;6.85;4.00;;;12.30;68.40;;;;;;4906116;29;20036;-94
2021/04/28 13:31:40;;;;;;;12.07;5.65;;;12.30;69.00;;;;;;4907718;29;20447;-94
2021/04/28 13:34:06;;;;;;;8.68;4.68;;;12.20;67.60;;;;;;4906401;29;20032;-94
2021/04/28 13:36:50;;;;;;;9.55;4.18;;;12.10;67.50;;;;;;4906645;29;20522;-94
2021/04/28 13:39:28;;;;;;;10.00;4.57;;;12.10;67.60;;;;;;4906741;29;20048;-94
2021/04/28 13:41:57;;;;;;;9.65;4.40;;;12.00;67.60;;;;;;4907175;29;20025;-93
2021/04/28 13:44:27;;;;;;;7.88;4.57;;;12.10;67.70;;;;;;4908319;29;20048;-94
2021/04/28 13:46:55;;;;;;;6.78;3.92;;;12.20;67.70;;;;;;4910111;29;20028;-93
2021/04/28 13:49:22;;;;;;;11.35;4.78;;;12.20;67.30;;;;;;4906824;29;20052;-93
2021/04/28 13:51:56;;;;;;;7.15;4.40;;;12.20;67.10;;;;;;4905696;29;20028;-94
2021/04/28 13:54:22;;;;;;;5.97;3.35;;;12.30;66.60;;;;;;4903825;29;20048;-93
2021/04/28 13:56:49;;;;;;;11.00;4.40;;;12.40;66.50;;;;;;4904391;29;20046;-94
2021/04/28 13:59:18;;;;;;;10.73;5.13;;;12.40;66.30;;;;;;4904745;29;20035;-94
2021/04/28 14:01:47;;;;;;;12.75;5.05;;;12.50;66.10;;;;;;4905122;29;20088;-94
2021/04/28 14:04:13;;;;;;;9.32;4.68;;;12.60;66.00;;;;;;4906844;29;20123;-93
2021/04/28 14:06:40;;;;;;;8.88;4.63;;;12.70;65.30;;;;;;4922457;29;20024;-93
2021/04/28 14:09:06;;;;;;;10.02;4.60;;;12.70;64.70;;;;;;4928808;29;20108;-95
2021/04/28 14:11:32;;;;;;;9.27;3.78;;;12.70;64.40;;;;;;4925250;29;20024;-93
2021/04/28 14:13:58;;;;;;;9.10;4.53;;;12.80;64.30;;;;;;4922775;29;20052;-93
2021/04/28 14:16:24;;;;;;;7.85;4.25;;;12.80;64.10;;;;;;4915230;29;20372;-93
2021/04/28 14:18:49;;;;;;;8.68;4.70;;;12.90;64.00;;;;;;4914012;29;20036;-94
2021/04/28 14:27:38;;;;;;;13.32;4.65;;;13.10;62.90;;;;;;4921077;29;20636;-93
2021/04/28 14:30:07;;;;;;;9.35;4.40;;;13.10;62.70;;;;;;4921770;29;20040;-93
2021/04/28 14:32:33;;;;;;;9.32;4.90;;;13.00;62.30;;;;;;4903927;29;20167;-92
2021/04/28 14:35:00;;;;;;;10.32;4.50;;;12.90;62.20;;;;;;4905737;29;20484;-94
2021/04/28 14:37:25;;;;;;;10.23;5.05;;;13.00;62.50;;;;;;4905172;29;20036;-93
2021/04/28 14:39:51;;;;;;;9.90;5.05;;;13.10;62.50;;;;;;4904007;29;20054;-93
2021/04/28 14:42:17;;;;;;;10.00;4.53;;;13.20;63.20;;;;;;4903456;29;20127;-92
2021/04/28 14:44:42;;;;;;;6.85;3.63;;;13.40;62.30;;;;;;4904669;29;20083;-93
2021/04/28 14:47:08;;;;;;;9.68;4.13;;;13.50;61.80;;;;;;4905226;29;20028;-92
2021/04/28 14:49:33;;;;;;;8.90;4.50;;;13.50;61.50;;;;;;4905386;29;20024;-93
2021/04/28 14:51:59;;;;;;;9.45;4.13;;;13.70;60.60;;;;;;4902193;29;20119;-93
2021/04/28 14:54:25;;;;;;;8.30;4.47;;;13.80;60.70;;;;;;4918698;29;20095;-93
2021/04/28 14:56:51;;;;;;;8.80;4.75;;;14.10;60.60;;;;;;4909224;29;20036;-93
2021/04/28 14:59:19;;;;;;;12.32;3.85;;;14.30;60.00;;;;;;4909113;29;20044;-92
2021/04/28 15:01:45;;;;;;;9.25;4.50;;;14.40;59.50;;;;;;4903535;29;20160;-92
2021/04/28 15:04:10;;;;;;;11.43;4.05;;;14.40;59.00;;;;;;4914344;29;20119;-93
2021/04/28 15:06:36;;;;;;;8.43;3.65;;;14.20;58.80;;;;;;4921773;29;20028;-93
2021/04/28 15:14:15;;;;;;;8.57;3.58;;;14.60;58.80;;;;;;5108098;23;20059;-91
2021/04/28 15:16:41;;;;;;;10.27;3.67;;;14.80;58.40;;;;;;4957095;29;20031;-92
2021/04/28 15:19:06;;;;;;;9.35;3.45;;;14.90;58.10;;;;;;4939716;29;20063;-92
2021/04/28 15:21:33;;;;;;;9.65;4.40;;;14.70;57.70;;;;;;4957374;29;20090;-92
2021/04/28 15:23:59;;;;;;;9.63;3.35;;;14.60;57.90;;;;;;4945001;29;20042;-93
2021/04/28 15:26:25;;;;;;;4.38;2.70;;;14.50;58.00;;;;;;4960473;29;20087;-94
2021/04/28 15:28:51;;;;;;;6.05;2.88;;;14.60;58.00;;;;;;4942760;29;20035;-92
2021/04/28 15:31:18;;;;;;;8.43;3.13;;;14.70;57.70;;;;;;4924568;29;20040;-93
2021/04/28 15:33:44;;;;;;;11.70;4.22;;;14.80;57.70;;;;;;4920510;29;20063;-93
2021/04/28 15:36:09;;;;;;;6.13;2.83;;;14.80;57.40;;;;;;4924900;29;20039;-93
2021/04/28 15:52:10;;;;;;;6.43;3.00;;;15.20;56.10;;;;;;6021435;23;20108;31
2021/04/28 15:54:36;;;;;;;6.43;3.15;;;15.10;56.20;;;;;;4882159;29;20291;-94
2021/04/28 15:57:02;;;;;;;6.60;2.45;;;14.90;56.20;;;;;;4893310;29;20087;-94
2021/04/28 15:59:27;;;;;;;8.00;2.50;;;14.80;56.40;;;;;;4913464;29;20040;-94
2021/04/28 16:01:53;;;;;;;5.45;2.65;;;14.70;56.70;;;;;;4908459;29;20021;-93
2021/04/28 16:04:24;;;;;;;7.18;2.53;;;14.50;56.70;;;;;;4904865;29;20060;-93
2021/04/28 16:06:49;;;;;;;7.80;2.92;;;14.30;57.00;;;;;;4913527;29;20029;-94
2021/04/28 16:09:18;;;;;;;4.63;2.88;;;14.20;57.40;;;;;;4900957;29;20046;-93
2021/04/28 16:11:46;;;;;;;7.63;2.67;;;14.30;57.20;;;;;;4909168;29;20028;-93
2021/04/28 16:14:26;;;;;;;7.50;2.60;;;14.40;56.70;;;;;;4915900;29;20028;-93
2021/04/28 16:16:53;;;;;;;6.22;2.92;;;14.40;56.30;;;;;;4902823;29;20088;-94
2021/04/28 16:19:19;;;;;;;4.43;2.58;;;14.40;56.10;;;;;;4900701;29;20043;-94
2021/04/28 16:21:45;;;;;;;6.05;2.58;;;14.40;56.10;;;;;;4907564;29;20033;-94
2021/04/28 16:24:36;;;;;;;9.85;2.88;;;14.30;56.00;;;;;;4913413;29;20054;-94
2021/04/28 16:27:02;;;;;;;6.85;2.28;;;14.20;55.90;;;;;;4896109;29;20147;-93
2021/04/28 16:29:27;;;;;;;7.43;2.72;;;13.90;56.00;;;;;;4912093;29;20472;-92
2021/04/28 16:31:53;;;;;;;8.40;2.55;;;13.80;56.40;;;;;;4908336;29;20031;-93
2021/04/28 16:34:19;;;;;;;7.63;3.03;;;13.70;56.60;;;;;;4913016;29;20446;-93
2021/04/28 16:36:45;;;;;;;4.10;2.55;;;13.60;56.60;;;;;;4906675;29;20032;-93
2021/04/28 16:39:16;;;;;;;4.97;3.00;;;13.50;57.10;;;;;;4898944;29;20045;-95
2021/04/28 16:41:44;;;;;;;9.00;2.75;;;13.50;57.30;;;;;;4917974;29;20029;-95
2021/04/28 16:44:10;;;;;;;5.40;2.95;;;13.40;57.10;;;;;;4919486;29;20031;-95
2021/04/28 17:00:22;;;;;;;7.18;3.05;;;12.70;57.80;;;;;;5255471;23;20166;-92